createdAt,value
2018-03-03T00:02:09.081Z,26.57
2018-03-03T00:04:36.596Z,29.43
2018-03-03T00:07:04.118Z,28.47
2018-03-03T00:09:32.474Z,28.40
2018-03-03T00:11:59.994Z,30.00
2018-03-03T00:14:27.526Z,31.07
2018-03-03T00:16:55.062Z,31.30
2018-03-03T00:19:22.620Z,30.87
2018-03-03T00:21:51.061Z,17.77
2018-03-03T00:24:18.580Z,31.43
2018-03-03T00:26:46.113Z,26.47
2018-03-03T00:29:13.641Z,31.37
2018-03-03T00:31:42.249Z,25.23
2018-03-03T00:34:09.776Z,30.60
2018-03-03T00:36:37.310Z,30.27
2018-03-03T00:39:04.869Z,30.83
2018-03-03T00:41:32.385Z,14.87
2018-03-03T00:43:59.911Z,31.30
2018-03-03T00:46:27.445Z,30.93
2018-03-03T00:48:54.981Z,29.23
2018-03-03T00:51:22.505Z,28.50
2018-03-03T00:53:50.029Z,20.50
2018-03-03T00:56:17.564Z,29.37
2018-03-03T00:58:45.081Z,21.17
2018-03-03T01:01:12.599Z,20.07
2018-03-03T01:03:40.125Z,25.37
2018-03-03T01:06:07.654Z,30.07
2018-03-03T01:08:35.469Z,30.60
2018-03-03T01:11:02.992Z,30.63
2018-03-03T01:13:30.520Z,32.70
2018-03-03T01:15:58.037Z,25.40
2018-03-03T01:18:25.564Z,32.07
2018-03-03T01:20:53.102Z,19.57
2018-03-03T01:23:20.696Z,31.50
2018-03-03T01:25:48.202Z,32.37
2018-03-03T01:28:15.716Z,31.50
2018-03-03T01:30:43.251Z,30.33
2018-03-03T01:33:10.777Z,23.70
2018-03-03T01:35:38.298Z,29.03
2018-03-03T01:38:05.824Z,28.40
2018-03-03T01:40:33.460Z,31.57
2018-03-03T01:43:00.986Z,31.60
2018-03-03T01:45:28.505Z,32.00
2018-03-03T01:47:56.050Z,31.43
2018-03-03T01:50:23.570Z,32.73
2018-03-03T01:52:52.017Z,30.20
2018-03-03T01:55:19.538Z,30.93
2018-03-03T01:57:47.654Z,25.10
2018-03-03T02:00:15.174Z,23.13
2018-03-03T02:02:42.696Z,21.80
2018-03-03T02:05:10.215Z,29.00
2018-03-03T02:07:37.746Z,29.60
2018-03-03T02:10:05.269Z,13.80
2018-03-03T02:12:32.801Z,31.37
2018-03-03T02:15:02.025Z,28.90
2018-03-03T02:17:29.554Z,28.13
2018-03-03T02:19:58.204Z,28.30
2018-03-03T02:22:25.727Z,29.13
2018-03-03T02:24:53.263Z,30.13
2018-03-03T02:27:20.786Z,33.80
2018-03-03T02:29:48.329Z,25.53
2018-03-03T02:32:15.861Z,29.27
2018-03-03T02:34:43.388Z,31.80
2018-03-03T02:37:10.920Z,29.10
2018-03-03T02:39:38.489Z,30.43
2018-03-03T02:42:06.014Z,27.33
2018-03-03T02:44:33.546Z,26.83
2018-03-03T02:47:01.079Z,28.50
2018-03-03T02:49:29.325Z,25.47
2018-03-03T02:51:56.854Z,16.67
2018-03-03T02:54:24.396Z,26.50
2018-03-03T02:56:51.954Z,27.90
2018-03-03T02:59:20.106Z,27.00
2018-03-03T03:01:47.646Z,28.03
2018-03-03T03:04:15.883Z,27.73
2018-03-03T03:06:43.412Z,28.10
2018-03-03T03:09:10.939Z,20.90
2018-03-03T03:11:38.471Z,27.70
2018-03-03T03:14:06.004Z,11.83
2018-03-03T03:16:33.599Z,29.97
2018-03-03T03:19:01.101Z,27.70
2018-03-03T03:21:28.630Z,30.67
2018-03-03T03:23:56.169Z,27.80
2018-03-03T03:26:24.653Z,26.87
2018-03-03T03:28:52.179Z,29.27
2018-03-03T03:31:19.704Z,25.43
2018-03-03T03:33:47.262Z,28.97
2018-03-03T03:36:14.786Z,27.63
2018-03-03T03:38:42.317Z,30.30
2018-03-03T03:41:09.846Z,28.67
2018-03-03T03:43:38.072Z,29.63
2018-03-03T03:46:05.601Z,26.97
2018-03-03T03:48:33.116Z,17.50
2018-03-03T03:51:00.650Z,28.77
2018-03-03T03:53:28.176Z,25.83
2018-03-03T03:55:56.361Z,26.40
2018-03-03T03:58:23.888Z,29.40
2018-03-03T04:00:52.015Z,29.83
2018-03-03T04:03:19.548Z,24.17
2018-03-03T04:05:47.079Z,28.40
2018-03-03T04:08:14.596Z,25.23
2018-03-03T04:10:42.129Z,29.57
2018-03-03T04:13:09.652Z,9.10
2018-03-03T04:15:37.509Z,29.00
2018-03-03T04:18:05.038Z,30.17
2018-03-03T04:20:32.704Z,30.80
2018-03-03T04:23:00.232Z,28.03
2018-03-03T04:25:27.777Z,29.87
2018-03-03T04:27:55.700Z,29.70
2018-03-03T04:30:23.227Z,27.53
2018-03-03T04:32:51.229Z,30.43
2018-03-03T04:35:18.753Z,30.97
2018-03-03T04:37:46.826Z,30.30
2018-03-03T04:40:14.341Z,33.10
2018-03-03T04:42:41.879Z,28.97
2018-03-03T04:45:09.405Z,25.07
2018-03-03T04:47:36.942Z,30.23
2018-03-03T04:50:04.477Z,32.03
2018-03-03T04:52:32.010Z,31.60
2018-03-03T04:54:59.569Z,31.17
2018-03-03T04:57:27.106Z,27.67
2018-03-03T05:03:12.325Z,33.07
2018-03-03T05:05:45.454Z,16.97
2018-03-03T05:11:09.879Z,29.50
2018-03-03T05:13:47.294Z,28.73
2018-03-03T05:16:19.031Z,29.80
2018-03-03T05:18:52.138Z,24.30
2018-03-03T05:24:38.572Z,30.30
2018-03-03T05:30:23.112Z,33.10
2018-03-03T05:32:56.486Z,29.50
2018-03-03T05:38:32.619Z,34.10
2018-03-03T05:44:11.001Z,27.73
2018-03-03T05:46:44.505Z,28.80
2018-03-03T05:49:17.744Z,30.10
2018-03-03T05:54:57.001Z,30.67
2018-03-03T05:57:31.085Z,29.57
2018-03-03T06:00:04.784Z,30.40
2018-03-03T06:02:38.003Z,27.00
2018-03-03T06:05:11.081Z,33.20
2018-03-03T06:07:44.332Z,31.23
2018-03-03T06:10:13.359Z,30.07
2018-03-03T06:12:40.885Z,29.90
2018-03-03T06:15:08.420Z,30.93
2018-03-03T06:17:35.969Z,30.80
2018-03-03T06:20:03.523Z,29.33
2018-03-03T06:22:31.039Z,17.07
2018-03-03T06:24:58.901Z,22.77
2018-03-03T06:27:26.443Z,31.47
2018-03-03T06:29:53.969Z,30.33
2018-03-03T06:32:21.498Z,30.97
2018-03-03T06:34:49.640Z,22.93
2018-03-03T06:37:17.166Z,30.33
2018-03-03T06:39:44.717Z,29.30
2018-03-03T06:42:12.248Z,32.10
2018-03-03T06:44:39.781Z,33.03
2018-03-03T06:47:07.313Z,31.17
2018-03-03T06:49:34.834Z,34.10
2018-03-03T06:52:02.363Z,27.23
2018-03-03T06:54:30.236Z,32.33
2018-03-03T06:56:57.762Z,30.00
2018-03-03T06:59:25.298Z,31.47
2018-03-03T07:01:52.827Z,31.53
2018-03-03T07:04:20.368Z,27.80
2018-03-03T07:06:47.906Z,31.73
2018-03-03T07:09:16.284Z,30.53
2018-03-03T07:11:44.547Z,31.43
2018-03-03T07:14:12.085Z,31.27
2018-03-03T07:16:40.084Z,33.77
2018-03-03T07:19:07.626Z,30.10
2018-03-03T07:21:35.156Z,28.90
2018-03-03T07:24:02.685Z,30.13
2018-03-03T07:26:30.221Z,34.63
2018-03-03T07:28:57.746Z,35.10
2018-03-03T07:31:25.270Z,31.17
2018-03-03T07:33:52.789Z,32.23
2018-03-03T07:36:20.332Z,32.43
2018-03-03T07:38:47.885Z,32.87
2018-03-03T07:41:15.426Z,32.33
2018-03-03T07:43:42.956Z,34.10
2018-03-03T07:46:10.478Z,34.47
2018-03-03T07:48:37.996Z,33.70
2018-03-03T07:51:05.525Z,34.77
2018-03-03T07:53:33.062Z,34.10
2018-03-03T07:56:00.584Z,33.90
2018-03-03T08:01:32.657Z,32.23
2018-03-03T08:04:00.205Z,34.63
2018-03-03T08:06:27.730Z,34.73
2018-03-03T08:08:55.261Z,35.10
2018-03-03T08:11:22.785Z,29.30
2018-03-03T08:13:50.519Z,22.97
2018-03-03T08:16:18.062Z,32.57
2018-03-03T08:18:45.598Z,34.17
2018-03-03T08:21:13.125Z,31.37
2018-03-03T08:23:40.664Z,30.80
2018-03-03T08:26:08.204Z,29.07
2018-03-03T08:28:35.719Z,25.63
2018-03-03T08:31:03.246Z,30.63
2018-03-03T08:33:30.774Z,30.17
2018-03-03T08:35:59.231Z,29.37
2018-03-03T08:38:26.788Z,29.10
2018-03-03T08:40:54.322Z,26.73
2018-03-03T08:43:21.911Z,26.53
2018-03-03T08:45:49.424Z,28.10
2018-03-03T08:48:16.952Z,27.50
2018-03-03T08:50:44.483Z,25.70
2018-03-03T08:53:12.006Z,26.90
2018-03-03T08:55:39.634Z,27.20
2018-03-03T08:58:07.828Z,27.33
2018-03-03T09:00:35.358Z,25.40
2018-03-03T09:03:02.899Z,25.13
2018-03-03T09:05:30.434Z,20.90
2018-03-03T09:07:57.959Z,23.10
2018-03-03T09:10:25.493Z,23.70
2018-03-03T09:12:53.013Z,20.80
2018-03-03T09:15:21.374Z,23.20
2018-03-03T09:17:48.906Z,22.70
2018-03-03T09:20:16.432Z,22.83
2018-03-03T09:22:43.963Z,22.67
2018-03-03T09:25:12.169Z,21.47
2018-03-03T09:27:39.698Z,22.37
2018-03-03T09:30:07.221Z,22.57
2018-03-03T09:32:34.734Z,22.40
2018-03-03T09:35:03.157Z,20.83
2018-03-03T09:37:30.689Z,24.10
2018-03-03T09:39:58.219Z,24.00
2018-03-03T09:42:25.762Z,21.90
2018-03-03T09:44:53.292Z,23.40
2018-03-03T09:47:20.878Z,22.83
2018-03-03T09:49:48.417Z,23.07
2018-03-03T09:52:15.935Z,24.63
2018-03-03T09:54:43.464Z,25.23
2018-03-03T09:57:10.998Z,26.13
2018-03-03T09:59:39.401Z,26.00
2018-03-03T10:02:07.135Z,24.20
2018-03-03T10:04:34.673Z,26.33
2018-03-03T10:07:02.197Z,26.37
2018-03-03T10:09:29.737Z,26.57
2018-03-03T10:11:57.270Z,27.20
2018-03-03T10:14:24.851Z,26.37
2018-03-03T10:16:52.366Z,26.10
2018-03-03T10:19:19.890Z,25.93
2018-03-03T10:21:47.416Z,19.43
2018-03-03T10:24:14.958Z,25.70
2018-03-03T10:26:43.199Z,24.77
2018-03-03T10:29:10.735Z,24.83
2018-03-03T10:31:39.183Z,22.43
2018-03-03T10:34:06.704Z,23.50
2018-03-03T10:36:34.799Z,22.37
2018-03-03T10:39:04.026Z,22.40
2018-03-03T10:41:31.555Z,23.13
2018-03-03T10:43:59.094Z,22.07
2018-03-03T10:46:26.674Z,25.23
2018-03-03T10:48:54.778Z,16.43
2018-03-03T10:51:22.298Z,22.30
2018-03-03T10:53:50.541Z,21.87
2018-03-03T10:56:18.588Z,22.63
2018-03-03T10:58:46.162Z,22.93
2018-03-03T11:01:13.689Z,21.57
2018-03-03T11:03:41.229Z,18.10
2018-03-03T11:06:09.339Z,22.67
2018-03-03T11:08:36.866Z,18.17
2018-03-03T11:11:04.402Z,21.90
2018-03-03T11:13:31.934Z,8.50
2018-03-03T11:15:59.465Z,19.50
2018-03-03T11:18:27.761Z,20.70
2018-03-03T11:20:55.304Z,17.27
2018-03-03T11:23:22.835Z,21.73
2018-03-03T11:25:50.365Z,20.87
2018-03-03T11:28:18.620Z,14.93
2018-03-03T11:30:46.388Z,21.73
2018-03-03T11:33:13.913Z,17.80
2018-03-03T11:35:41.436Z,20.87
2018-03-03T11:38:08.960Z,20.73
2018-03-03T11:40:36.532Z,20.17
2018-03-03T11:43:04.776Z,20.93
2018-03-03T11:45:32.302Z,12.10
2018-03-03T11:47:59.817Z,21.33
2018-03-03T11:50:27.336Z,22.33
2018-03-03T11:52:54.858Z,22.60
2018-03-03T11:55:22.389Z,20.93
2018-03-03T11:57:49.932Z,24.13
2018-03-03T12:00:17.468Z,24.43
2018-03-03T12:02:45.020Z,23.03
2018-03-03T12:05:12.545Z,22.57
2018-03-03T12:07:40.077Z,20.40
2018-03-03T12:10:07.601Z,23.50
2018-03-03T12:12:35.130Z,23.83
2018-03-03T12:15:02.649Z,23.50
2018-03-03T12:17:30.649Z,21.30
2018-03-03T12:19:58.178Z,21.30
2018-03-03T12:22:26.029Z,17.23
2018-03-03T12:24:53.556Z,23.97
2018-03-03T12:27:21.109Z,23.47
2018-03-03T12:29:48.637Z,24.00
2018-03-03T12:32:16.166Z,21.63
2018-03-03T12:34:43.823Z,16.00
2018-03-03T12:37:11.366Z,19.67
2018-03-03T12:39:38.970Z,22.87
2018-03-03T12:42:06.502Z,23.67
2018-03-03T12:44:35.359Z,17.37
2018-03-03T12:47:02.925Z,22.47
2018-03-03T12:49:30.447Z,17.87
2018-03-03T12:51:58.033Z,21.97
2018-03-03T12:54:25.559Z,20.63
2018-03-03T12:56:53.114Z,21.10
2018-03-03T12:59:20.636Z,21.07
2018-03-03T13:01:48.877Z,20.30
2018-03-03T13:04:16.414Z,19.17
2018-03-03T13:06:43.969Z,20.33
2018-03-03T13:09:11.499Z,21.57
2018-03-03T13:11:39.029Z,20.80
2018-03-03T13:14:06.556Z,20.13
2018-03-03T13:16:34.208Z,21.50
2018-03-03T13:19:01.739Z,21.80
2018-03-03T13:21:29.290Z,16.23
2018-03-03T13:23:56.836Z,22.27
2018-03-03T13:26:24.375Z,17.87
2018-03-03T13:28:52.064Z,21.30
2018-03-03T13:31:19.596Z,22.83
2018-03-03T13:33:47.141Z,19.87
2018-03-03T13:36:14.721Z,15.67
2018-03-03T13:38:43.075Z,20.63
2018-03-03T13:41:10.605Z,20.40
2018-03-03T13:43:38.142Z,17.30
2018-03-03T13:46:05.665Z,17.53
2018-03-03T13:48:33.284Z,21.63
2018-03-03T13:51:00.814Z,21.40
2018-03-03T13:53:28.935Z,21.97
2018-03-03T13:55:56.460Z,16.17
2018-03-03T13:58:23.996Z,21.83
2018-03-03T14:00:51.537Z,22.50
2018-03-03T14:03:19.079Z,21.37
2018-03-03T14:05:46.610Z,20.83
2018-03-03T14:08:14.142Z,21.33
2018-03-03T14:10:41.689Z,21.27
2018-03-03T14:13:09.247Z,19.80
2018-03-03T14:15:36.784Z,9.57
2018-03-03T14:18:05.292Z,22.23
2018-03-03T14:20:32.813Z,20.23
2018-03-03T14:23:01.114Z,18.20
2018-03-03T14:25:29.483Z,23.07
2018-03-03T14:27:57.053Z,19.97
2018-03-03T14:30:25.340Z,20.03
2018-03-03T14:32:52.870Z,21.07
2018-03-03T14:35:20.396Z,20.13
2018-03-03T14:37:47.925Z,21.90
2018-03-03T14:40:15.458Z,21.80
2018-03-03T14:42:42.999Z,19.43
2018-03-03T14:45:11.353Z,16.67
2018-03-03T14:47:38.900Z,13.03
2018-03-03T14:50:06.428Z,20.30
2018-03-03T14:52:34.053Z,21.00
2018-03-03T14:55:01.587Z,20.90
2018-03-03T14:57:29.116Z,18.00
2018-03-03T14:59:56.650Z,20.20
2018-03-03T15:02:24.175Z,25.35
2018-03-03T15:04:51.708Z,22.33
2018-03-03T15:07:20.213Z,20.63
2018-03-03T15:09:47.740Z,20.80
2018-03-03T15:12:15.307Z,21.10
2018-03-03T15:14:43.781Z,12.50
2018-03-03T15:17:11.398Z,19.93
2018-03-03T15:19:38.934Z,19.13
2018-03-03T15:22:07.342Z,19.60
2018-03-03T15:24:34.886Z,20.37
2018-03-03T15:27:03.078Z,21.53
2018-03-03T15:29:30.605Z,22.23
2018-03-03T15:31:58.133Z,23.00
2018-03-03T15:34:25.663Z,13.47
2018-03-03T15:36:53.218Z,15.50
2018-03-03T15:39:20.813Z,20.53
2018-03-03T15:41:48.306Z,20.80
2018-03-03T15:44:16.609Z,17.97
2018-03-03T15:46:44.143Z,21.30
2018-03-03T15:49:11.690Z,21.03
2018-03-03T15:51:39.220Z,21.57
2018-03-03T15:54:06.741Z,21.67
2018-03-03T15:56:34.267Z,20.97
2018-03-03T15:59:01.803Z,19.77
2018-03-03T16:01:29.344Z,21.77
2018-03-03T16:03:56.874Z,22.23
2018-03-03T16:06:24.401Z,21.67
2018-03-03T16:08:51.922Z,21.17
2018-03-03T16:11:19.446Z,22.67
2018-03-03T16:13:46.980Z,21.13
2018-03-03T16:16:14.498Z,21.60
2018-03-03T16:18:42.804Z,21.10
2018-03-03T16:21:10.343Z,13.60
2018-03-03T16:23:37.870Z,16.90
2018-03-03T16:26:05.441Z,20.87
2018-03-03T16:28:32.970Z,22.13
2018-03-03T16:31:00.494Z,21.60
2018-03-03T16:33:28.776Z,20.80
2018-03-03T16:35:56.306Z,21.57
2018-03-03T16:38:23.823Z,20.77
2018-03-03T16:40:51.380Z,15.97
2018-03-03T16:43:18.946Z,21.90
2018-03-03T16:45:47.425Z,21.53
2018-03-03T16:48:14.958Z,20.67
2018-03-03T16:50:42.712Z,17.20
2018-03-03T16:53:10.269Z,16.00
2018-03-03T16:55:37.797Z,21.53
2018-03-03T16:58:05.329Z,21.60
2018-03-03T17:00:32.858Z,21.63
2018-03-03T17:03:00.385Z,19.40
2018-03-03T17:05:27.920Z,22.50
2018-03-03T17:07:55.437Z,24.00
2018-03-03T17:10:22.971Z,22.27
2018-03-03T17:12:50.520Z,17.17
2018-03-03T17:15:18.051Z,22.10
2018-03-03T17:17:45.590Z,22.90
2018-03-03T17:20:13.121Z,23.03
2018-03-03T17:22:40.658Z,23.33
2018-03-03T17:25:08.248Z,20.20
2018-03-03T17:27:35.796Z,23.80
2018-03-03T17:30:03.334Z,23.50
2018-03-03T17:32:31.711Z,23.47
2018-03-03T17:34:59.240Z,23.77
2018-03-03T17:37:26.766Z,24.37
2018-03-03T17:39:54.547Z,23.53
2018-03-03T17:42:22.078Z,23.37
2018-03-03T17:44:49.625Z,23.87
2018-03-03T17:47:17.147Z,25.37
2018-03-03T17:49:44.676Z,24.17
2018-03-03T17:52:13.257Z,24.33
2018-03-03T17:54:40.781Z,22.50
2018-03-03T17:57:08.327Z,23.67
2018-03-03T17:59:35.888Z,24.50
2018-03-03T18:02:03.673Z,22.77
2018-03-03T18:04:31.202Z,21.80
2018-03-03T18:06:58.728Z,23.80
2018-03-03T18:09:26.311Z,23.67
2018-03-03T18:11:59.561Z,22.93
2018-03-03T18:14:28.745Z,24.23
2018-03-03T18:16:56.290Z,22.23
2018-03-03T18:19:35.664Z,23.17
2018-03-03T18:22:03.253Z,23.63
2018-03-03T18:24:36.758Z,22.73
2018-03-03T18:27:04.343Z,23.13
2018-03-03T18:29:31.903Z,23.53
2018-03-03T18:31:59.440Z,23.67
2018-03-03T18:34:26.987Z,23.97
2018-03-03T18:36:54.567Z,22.97
2018-03-03T18:39:22.259Z,23.83
2018-03-03T18:41:49.809Z,24.47
2018-03-03T18:44:17.325Z,23.67
2018-03-03T18:46:44.853Z,22.97
2018-03-03T18:49:12.398Z,23.83
2018-03-03T18:51:39.954Z,23.17
2018-03-03T18:54:07.490Z,24.83
2018-03-03T18:56:35.105Z,23.90
2018-03-03T18:59:02.647Z,22.30
2018-03-03T19:01:30.237Z,23.90
2018-03-03T19:03:57.824Z,23.97
2018-03-03T19:06:25.352Z,23.17
2018-03-03T19:08:53.277Z,22.60
2018-03-03T19:11:20.880Z,23.70
2018-03-03T19:13:48.406Z,22.67
2018-03-03T19:16:15.937Z,22.80
2018-03-03T19:18:43.489Z,23.87
2018-03-03T19:21:11.051Z,23.37
2018-03-03T19:23:38.573Z,24.93
2018-03-03T19:26:06.103Z,22.93
2018-03-03T19:28:33.631Z,23.00
2018-03-03T19:31:01.182Z,20.60
2018-03-03T19:33:28.713Z,23.83
2018-03-03T19:35:56.242Z,23.57
2018-03-03T19:38:23.767Z,26.13
2018-03-03T19:40:51.427Z,19.63
2018-03-03T19:43:18.950Z,22.73
2018-03-03T19:45:46.469Z,24.43
2018-03-03T19:48:14.018Z,23.93
2018-03-03T19:50:41.550Z,25.80
2018-03-03T19:53:10.150Z,24.93
2018-03-03T19:55:38.272Z,22.57
2018-03-03T19:58:05.813Z,23.87
2018-03-03T20:00:33.338Z,24.67
2018-03-03T20:03:00.865Z,22.10
2018-03-03T20:05:28.417Z,25.33
2018-03-03T20:07:56.761Z,25.87
2018-03-03T20:10:24.307Z,25.53
2018-03-03T20:12:51.836Z,21.53
2018-03-03T20:15:19.358Z,24.80
2018-03-03T20:17:46.895Z,22.80
2018-03-03T20:20:14.435Z,24.20
2018-03-03T20:22:41.966Z,25.50
2018-03-03T20:25:10.099Z,25.43
2018-03-03T20:27:37.631Z,24.60
2018-03-03T20:30:05.150Z,25.93
2018-03-03T20:32:32.692Z,24.70
2018-03-03T20:35:00.256Z,23.80
2018-03-03T20:37:27.795Z,24.50
2018-03-03T20:39:55.319Z,24.50
2018-03-03T20:42:23.606Z,24.70
2018-03-03T20:44:51.140Z,24.03
2018-03-03T20:47:18.663Z,24.90
2018-03-03T20:49:46.182Z,24.10
2018-03-03T20:52:13.740Z,25.60
2018-03-03T20:54:41.284Z,23.70
2018-03-03T20:57:08.880Z,23.90
2018-03-03T20:59:36.403Z,24.53
2018-03-03T21:02:03.920Z,24.87
2018-03-03T21:04:31.442Z,26.07
2018-03-03T21:06:58.975Z,26.93
2018-03-03T21:09:26.504Z,24.47
2018-03-03T21:12:02.456Z,25.03
2018-03-03T21:14:30.314Z,25.43
2018-03-03T21:16:57.845Z,25.73
2018-03-03T21:19:26.268Z,26.00
2018-03-03T21:21:54.791Z,28.47
2018-03-03T21:24:22.323Z,28.37
2018-03-03T21:26:49.869Z,29.20
2018-03-03T21:29:17.408Z,25.00
2018-03-03T21:31:44.950Z,24.90
2018-03-03T21:34:12.505Z,26.53
2018-03-03T21:36:40.037Z,26.70
2018-03-03T21:39:07.637Z,27.90
2018-03-03T21:41:35.176Z,29.03
2018-03-03T21:44:02.740Z,27.43
2018-03-03T21:46:30.278Z,20.37
2018-03-03T21:48:57.831Z,26.20
2018-03-03T21:51:25.346Z,27.53
2018-03-03T21:53:52.873Z,22.90
2018-03-03T21:56:20.394Z,28.60
2018-03-03T21:58:47.928Z,22.63
2018-03-03T22:01:15.455Z,28.60
2018-03-03T22:03:43.420Z,25.70
2018-03-03T22:06:10.958Z,27.90
2018-03-03T22:08:39.282Z,27.30
2018-03-03T22:11:06.818Z,27.60
2018-03-03T22:13:34.348Z,26.67
2018-03-03T22:16:01.874Z,26.03
2018-03-03T22:18:29.403Z,26.70
2018-03-03T22:20:56.925Z,26.53
2018-03-03T22:23:24.459Z,25.50
2018-03-03T22:25:52.022Z,27.47
2018-03-03T22:28:19.562Z,27.97
2018-03-03T22:30:47.954Z,24.70
2018-03-03T22:33:15.483Z,27.23
2018-03-03T22:35:43.018Z,27.03
2018-03-03T22:38:10.599Z,28.97
2018-03-03T22:40:38.996Z,26.57
2018-03-03T22:43:07.513Z,25.97
2018-03-03T22:45:35.054Z,27.10
2018-03-03T22:48:03.483Z,28.13
2018-03-03T22:50:31.059Z,33.25
2018-03-03T22:52:58.585Z,28.60
2018-03-03T22:55:26.606Z,28.70
2018-03-03T22:57:54.268Z,26.40
2018-03-03T23:00:21.824Z,25.90
2018-03-03T23:02:49.350Z,27.47
2018-03-03T23:05:16.882Z,26.73
2018-03-03T23:07:44.413Z,25.80
2018-03-03T23:10:11.965Z,27.37
2018-03-03T23:12:39.489Z,28.40
2018-03-03T23:15:07.011Z,27.20
2018-03-03T23:17:34.584Z,27.17
2018-03-03T23:20:02.114Z,28.10
2018-03-03T23:22:29.736Z,27.43
2018-03-03T23:24:57.722Z,27.97
2018-03-03T23:27:25.252Z,27.43
2018-03-03T23:29:52.788Z,28.17
2018-03-03T23:32:20.318Z,21.90
2018-03-03T23:34:47.849Z,28.63
2018-03-03T23:37:16.306Z,28.63
2018-03-03T23:39:44.413Z,26.10
2018-03-03T23:42:11.944Z,29.63
2018-03-03T23:44:39.474Z,28.47
2018-03-03T23:47:07.701Z,28.47
2018-03-03T23:49:35.227Z,28.47
2018-03-03T23:52:03.338Z,26.87
2018-03-03T23:54:30.861Z,27.43
2018-03-03T23:56:58.411Z,25.20
2018-03-03T23:59:25.941Z,29.60
